12  °C
Temperature
10  °C
  Dewpoint
   Humidity
Temp | Dewpoint | Humidity
24  km/h
Wind Speed
15  mph
Wind Speed
13  kts
Wind Speed
190°
Due South

Wind Speed
Mostly Scattered
Clouds
Pressure 999.92 (hPa) - 29.53 (in)
Visibility 6.2 (mi) - 10.0 (km)

Current Conditions
EHRD
Location 6km (3.2mi)
Metar :EHRD 250725Z AUTO 19013KT 150V220 9999 SCT014 BKN016 BKN020 12/10 Q1000 TEMPO 7000
Sun 25th October 08:25 am

Airport
  Metar Aviation API Data Provided by https://www.checkwx.com/ CSS/SVG/PHP scripts by weather34.com © 2015-2020